Time;durP1;ratioP1;P1;durP2;ratioP2;P2;SDS_P1;SDS_P2;PMS_P1;PMS_P2;Temp;Humidity;BMP_temperature;BMP_pressure;BME280_temperature;BME280_humidity;BME280_pressure;Samples;Min_cycle;Max_cycle;Signal;HPM_P1;HPM_P2
2022/07/14 00:02:02;;;;;;;3.50;2.30;;;;;;;26.68;46.36;101527.22;5091226;28;20063;-87
2022/07/14 00:04:29;;;;;;;5.20;2.30;;;;;;;26.68;46.13;101520.94;5073573;28;20045;-87
2022/07/14 00:06:57;;;;;;;3.00;2.08;;;;;;;26.70;46.49;101527.03;5074826;28;20053;-87
2022/07/14 00:09:25;;;;;;;6.18;2.50;;;;;;;26.69;46.44;101520.75;5058825;28;20056;-87
2022/07/14 00:11:52;;;;;;;5.80;2.50;;;;;;;26.71;46.16;101515.19;5074929;28;20119;-86
2022/07/14 00:14:20;;;;;;;3.10;2.17;;;;;;;26.71;46.10;101517.91;5076828;28;20048;-86
2022/07/14 00:16:47;;;;;;;4.88;2.40;;;;;;;26.72;46.22;101522.31;5075215;28;20063;-86
2022/07/14 00:19:15;;;;;;;3.05;1.92;;;;;;;26.71;46.04;101518.75;5075059;28;20048;-86
2022/07/14 00:21:42;;;;;;;3.58;2.47;;;;;;;26.72;46.11;101515.00;5074362;28;20111;-86
2022/07/14 00:24:11;;;;;;;3.53;2.50;;;;;;;26.73;46.24;101524.84;5076644;28;20503;-88
2022/07/14 00:26:39;;;;;;;4.22;2.40;;;;;;;26.73;46.15;101518.56;5094523;28;20044;-88
2022/07/14 00:29:07;;;;;;;5.00;2.65;;;;;;;26.73;46.41;101522.13;5059225;28;20111;-87
2022/07/14 00:31:35;;;;;;;4.72;2.42;;;;;;;26.73;46.18;101524.84;5075738;28;20052;-88
2022/07/14 00:34:02;;;;;;;3.70;2.30;;;;;;;26.74;46.25;101520.25;5075682;28;20053;-88
2022/07/14 00:36:30;;;;;;;4.38;2.42;;;;;;;26.74;46.26;101512.09;5075478;28;20112;-87
2022/07/14 00:38:57;;;;;;;3.97;2.28;;;;;;;26.74;46.08;101520.25;5056689;28;20388;-87
2022/07/14 00:41:25;;;;;;;5.72;2.55;;;;;;;26.75;46.42;101517.41;5091746;28;20051;-86
2022/07/14 00:43:53;;;;;;;4.72;2.45;;;;;;;26.76;46.27;101512.81;5074547;28;20052;-86
2022/07/14 00:46:21;;;;;;;3.97;2.13;;;;;;;26.76;46.15;101515.53;5075201;28;20488;-86
2022/07/14 00:48:48;;;;;;;5.00;2.17;;;;;;;26.76;46.26;101519.09;5075310;28;20051;-86
2022/07/14 00:51:15;;;;;;;3.63;2.40;;;;;;;26.76;46.14;101510.94;5056872;28;20048;-86
2022/07/14 00:53:43;;;;;;;2.97;2.15;;;;;;;26.77;46.53;101515.34;5075478;28;20055;-87
2022/07/14 00:56:10;;;;;;;6.20;2.75;;;;;;;26.78;46.29;101513.47;5093127;28;20053;-89
2022/07/14 00:58:38;;;;;;;4.03;2.28;;;;;;;26.77;46.26;101509.06;5058099;28;20047;-89
2022/07/14 01:01:05;;;;;;;3.75;2.25;;;;;;;26.79;46.37;101512.50;5075181;28;20048;-88
2022/07/14 01:03:33;;;;;;;4.63;2.50;;;;;;;26.77;46.21;101509.91;5076070;28;20075;-89
2022/07/14 01:06:01;;;;;;;3.30;2.25;;;;;;;26.78;46.30;101505.31;5057651;28;20053;-90
2022/07/14 01:08:28;;;;;;;3.85;2.25;;;;;;;26.78;46.39;101500.78;5074956;28;20040;-90
2022/07/14 01:10:55;;;;;;;2.70;2.30;;;;;;;26.79;46.16;101501.63;5075093;28;20049;-90
2022/07/14 01:13:23;;;;;;;4.57;2.30;;;;;;;26.79;46.39;101498.91;5075435;28;20063;-89
2022/07/14 01:15:53;;;;;;;4.55;2.75;;;;;;;26.79;46.39;101494.31;5075588;28;20056;-92
2022/07/14 01:18:20;;;;;;;3.72;2.33;;;;;;;26.80;46.39;101500.59;5059743;28;20044;-90
2022/07/14 01:20:48;;;;;;;3.08;2.10;;;;;;;26.81;46.22;101496.84;5059168;28;20052;-90
2022/07/14 01:23:15;;;;;;;3.20;2.35;;;;;;;26.80;46.40;101500.59;5075168;28;20407;-90
2022/07/14 01:25:43;;;;;;;3.17;2.30;;;;;;;26.80;46.23;101504.16;5075230;28;20052;-89
2022/07/14 01:28:12;;;;;;;4.50;2.58;;;;;;;26.81;46.51;101496.84;5058376;28;20052;-89
2022/07/14 01:30:40;;;;;;;3.45;2.20;;;;;;;26.80;46.37;101496.00;5074653;28;20049;-90
2022/07/14 01:33:07;;;;;;;3.90;2.58;;;;;;;26.80;46.12;101492.44;5075246;28;20075;-89
2022/07/14 01:35:35;;;;;;;2.70;2.30;;;;;;;26.80;46.46;101495.16;5059937;28;20055;-89
2022/07/14 01:38:02;;;;;;;2.53;2.10;;;;;;;26.82;46.46;101501.31;5076454;28;20040;-88
2022/07/14 01:40:30;;;;;;;2.95;2.53;;;;;;;26.82;46.23;101498.59;5076304;28;20052;-89
2022/07/14 01:42:58;;;;;;;3.17;2.17;;;;;;;26.81;46.37;101492.28;5075218;28;20067;-88
2022/07/14 01:45:26;;;;;;;4.03;2.05;;;;;;;26.82;46.46;101495.88;5074598;28;20412;-86
2022/07/14 01:47:53;;;;;;;2.88;2.42;;;;;;;26.82;46.29;101493.16;5073848;28;20040;-87
2022/07/14 01:50:21;;;;;;;3.22;2.50;;;;;;;26.82;46.39;101504.03;5089228;28;20048;-85
2022/07/14 01:52:48;;;;;;;3.45;2.08;;;;;;;26.83;46.49;101500.28;5057274;28;20056;-86
2022/07/14 01:55:18;;;;;;;5.30;2.63;;;;;;;26.83;46.26;101505.72;5073195;28;20404;-86
2022/07/14 01:57:46;;;;;;;3.28;2.40;;;;;;;26.82;46.45;101504.03;5073329;28;20044;-83
2022/07/14 02:00:14;;;;;;;4.28;2.17;;;;;;;26.83;46.29;101512.00;5072125;28;20052;-82
2022/07/14 02:02:44;;;;;;;3.50;2.03;;;;;;;26.82;46.48;101496.72;5073800;28;20385;-81
2022/07/14 02:05:14;;;;;;;3.53;2.33;;;;;;;26.83;46.30;101497.56;5072067;28;20381;-81
2022/07/14 02:07:41;;;;;;;2.53;1.92;;;;;;;26.82;46.35;101504.03;5072358;28;20056;-81
2022/07/14 02:13:10;;;;;;;5.15;2.20;;;;;;;26.82;46.30;101494.00;5071581;28;20052;-81
2022/07/14 02:15:37;;;;;;;5.25;2.58;;;;;;;26.83;46.56;101497.56;5088744;28;20518;-81
2022/07/14 02:18:06;;;;;;;4.28;2.47;;;;;;;26.82;46.45;101490.44;5071595;28;20071;-82
2022/07/14 02:20:34;;;;;;;4.18;2.30;;;;;;;26.83;46.39;101492.13;5072544;28;20055;-83
2022/07/14 02:23:02;;;;;;;2.72;2.05;;;;;;;26.83;46.47;101483.97;5072530;28;20053;-80
2022/07/14 02:25:29;;;;;;;3.97;2.20;;;;;;;26.82;46.31;101479.56;5072490;28;20052;-83
2022/07/14 02:27:57;;;;;;;3.50;2.30;;;;;;;26.82;46.67;101479.56;5071501;28;20059;-83
2022/07/14 02:30:24;;;;;;;3.10;2.20;;;;;;;26.82;46.72;101485.84;5089392;28;20127;-82
2022/07/14 02:32:51;;;;;;;4.15;2.30;;;;;;;26.83;46.43;101481.25;5072039;28;20048;-82
2022/07/14 02:35:19;;;;;;;3.60;2.38;;;;;;;26.82;46.59;101469.53;5055669;28;20052;-83
2022/07/14 02:37:47;;;;;;;2.78;2.42;;;;;;;26.83;46.40;101479.38;5072160;28;20055;-83
2022/07/14 02:40:14;;;;;;;2.95;2.20;;;;;;;26.83;46.75;101482.09;5088874;28;20049;-83
2022/07/14 02:42:43;;;;;;;2.83;2.15;;;;;;;26.84;46.48;101488.38;5071474;28;20412;-83
2022/07/14 02:45:10;;;;;;;2.88;2.20;;;;;;;26.83;46.54;101479.38;5071478;28;20407;-83
2022/07/14 02:47:38;;;;;;;3.10;2.33;;;;;;;26.84;46.64;101474.81;5071583;28;20055;-84
2022/07/14 02:50:06;;;;;;;3.95;2.40;;;;;;;26.85;46.52;101481.94;5087878;28;20072;-84
2022/07/14 02:52:38;;;;;;;2.47;1.92;;;;;;;26.84;46.67;101478.38;5072278;28;20427;-84
2022/07/14 02:55:06;;;;;;;2.92;2.22;;;;;;;26.85;46.68;101479.22;5071245;28;20052;-84
2022/07/14 02:57:37;;;;;;;2.60;2.05;;;;;;;26.84;46.75;101475.66;5071447;28;20053;-84
2022/07/14 03:00:06;;;;;;;3.20;2.20;;;;;;;26.85;46.87;101476.50;5071121;28;20052;-86
2022/07/14 03:02:34;;;;;;;3.20;2.20;;;;;;;26.84;46.98;101472.94;5054638;28;20059;-83
2022/07/14 03:05:02;;;;;;;3.83;2.35;;;;;;;26.84;47.08;101469.38;5088888;28;20380;-85
2022/07/14 03:07:31;;;;;;;9.65;2.80;;;;;;;26.85;46.91;101474.63;5056213;28;20496;-83
2022/07/14 03:09:58;;;;;;;4.53;2.20;;;;;;;26.85;47.62;101473.78;5071258;28;20041;-83
2022/07/14 03:12:26;;;;;;;3.40;2.30;;;;;;;26.84;47.56;101482.94;5071446;28;20500;-83
2022/07/14 03:14:53;;;;;;;2.42;2.22;;;;;;;26.83;47.71;101476.66;5088634;28;20055;-85
2022/07/14 03:17:21;;;;;;;3.53;2.78;;;;;;;26.82;47.65;101477.69;5055065;28;20060;-84
2022/07/14 03:19:49;;;;;;;3.67;2.25;;;;;;;26.81;47.51;101480.56;5054591;28;20500;-85
2022/07/14 03:22:17;;;;;;;3.42;2.50;;;;;;;26.80;47.38;101470.72;5072287;28;20052;-85
2022/07/14 03:24:46;;;;;;;2.90;2.60;;;;;;;26.79;46.87;101478.03;5087873;28;20063;-84
2022/07/14 03:27:14;;;;;;;5.30;2.70;;;;;;;26.78;46.74;101472.72;5071061;28;20097;-84
2022/07/14 03:29:42;;;;;;;4.03;2.13;;;;;;;26.77;46.67;101477.31;5070917;28;20048;-83
2022/07/14 03:32:10;;;;;;;3.65;2.55;;;;;;;26.76;46.57;101480.22;5054964;28;20071;-83
2022/07/14 03:34:37;;;;;;;4.75;2.60;;;;;;;26.75;46.65;101467.66;5071897;28;20408;-83
2022/07/14 03:37:05;;;;;;;3.67;2.20;;;;;;;26.74;46.22;101477.69;5088206;28;20060;-83
2022/07/14 03:39:45;;;;;;;2.97;2.67;;;;;;;26.73;46.32;101478.66;5057720;28;20052;-83
2022/07/14 03:42:13;;;;;;;3.65;2.60;;;;;;;26.73;46.41;101475.94;5077031;28;20047;-83
2022/07/14 03:44:40;;;;;;;3.20;2.40;;;;;;;26.73;46.30;101470.50;5074807;28;20067;-84
2022/07/14 03:47:08;;;;;;;4.32;2.40;;;;;;;26.73;46.44;101464.25;5074327;28;20048;-83
2022/07/14 03:49:36;;;;;;;3.72;2.50;;;;;;;26.74;46.78;101468.66;5091542;28;20051;-84
2022/07/14 03:52:05;;;;;;;2.97;2.38;;;;;;;26.73;46.92;101469.66;5074602;28;20055;-82
2022/07/14 03:54:33;;;;;;;3.50;2.50;;;;;;;26.74;46.47;101472.25;5074987;28;20054;-83
2022/07/14 03:57:00;;;;;;;4.03;2.40;;;;;;;26.72;46.65;101466.09;5091269;28;20507;-83
2022/07/14 03:59:28;;;;;;;3.22;2.45;;;;;;;26.71;46.68;101467.13;5074878;28;20052;-83
2022/07/14 04:01:55;;;;;;;3.58;2.53;;;;;;;26.71;46.72;101469.00;5074615;28;20049;-83
2022/07/14 04:04:23;;;;;;;4.75;2.72;;;;;;;26.69;46.51;101469.16;5076592;28;20063;-84
2022/07/14 04:06:50;;;;;;;2.83;2.33;;;;;;;26.70;46.93;101475.44;5074578;28;20063;-84
2022/07/14 04:09:17;;;;;;;3.55;2.58;;;;;;;26.69;47.29;101466.44;5074093;28;20045;-83
2022/07/14 04:11:50;;;;;;;3.15;2.20;;;;;;;26.70;47.25;101464.56;5074363;28;20063;-84
2022/07/14 04:14:20;;;;;;;5.03;2.33;;;;;;;26.70;47.49;101464.56;5091858;28;20071;-84
2022/07/14 04:16:47;;;;;;;3.90;2.88;;;;;;;26.70;47.59;101464.56;5057826;28;20049;-84
2022/07/14 04:19:17;;;;;;;4.28;2.80;;;;;;;26.69;47.77;101461.00;5091076;28;20048;-83
2022/07/14 04:21:45;;;;;;;4.57;2.80;;;;;;;26.70;47.85;101459.13;5074341;28;20048;-84
2022/07/14 04:24:13;;;;;;;3.55;2.72;;;;;;;26.70;47.94;101462.72;5075839;28;20100;-84
2022/07/14 04:26:42;;;;;;;2.78;2.20;;;;;;;26.70;47.93;101462.72;5057943;28;20400;-83
2022/07/14 04:29:10;;;;;;;3.05;2.28;;;;;;;26.69;47.69;101454.72;5091610;28;20056;-83
2022/07/14 04:31:38;;;;;;;3.53;2.53;;;;;;;26.69;47.48;101457.44;5075901;28;20040;-84
2022/07/14 04:34:07;;;;;;;3.28;2.35;;;;;;;26.68;47.58;101461.19;5073878;28;20044;-83
2022/07/14 04:36:36;;;;;;;3.47;2.13;;;;;;;26.66;47.52;101457.75;5091398;28;20052;-82
2022/07/14 04:39:07;;;;;;;3.72;2.75;;;;;;;26.65;47.59;101469.66;5074139;28;20064;-83
2022/07/14 04:41:39;;;;;;;4.57;2.60;;;;;;;26.63;47.64;101465.25;5074391;28;20052;-83
2022/07/14 04:44:06;;;;;;;5.40;2.65;;;;;;;26.62;47.72;101465.41;5075909;28;20047;-83
2022/07/14 04:46:34;;;;;;;2.95;2.47;;;;;;;26.62;47.98;101471.69;5074162;28;20055;-82
2022/07/14 04:52:02;;;;;;;3.90;2.60;;;;;;;26.62;47.71;101470.84;5075645;28;20500;-83
2022/07/14 04:54:50;;;;;;;3.10;2.60;;;;;;;26.59;47.61;101453.00;5074578;28;20052;-82
2022/07/14 04:57:30;;;;;;;5.57;2.50;;;;;;;26.59;47.43;101457.59;5081035;28;20052;-82
2022/07/14 05:00:02;;;;;;;3.13;2.30;;;;;;;26.59;47.49;101458.44;5073097;28;20040;-82
2022/07/14 05:02:30;;;;;;;2.92;2.60;;;;;;;26.58;47.34;101459.47;5073333;28;20164;-82
2022/07/14 05:04:58;;;;;;;3.30;2.20;;;;;;;26.59;47.64;101454.88;5073409;28;20044;-83
2022/07/14 05:07:29;;;;;;;3.25;2.60;;;;;;;26.60;47.64;101459.28;5073048;28;20415;-83
2022/07/14 05:09:59;;;;;;;4.60;2.47;;;;;;;26.59;47.82;101458.44;5073239;28;20051;-82
2022/07/14 05:12:27;;;;;;;4.30;2.45;;;;;;;26.60;47.67;101459.28;5072950;28;20056;-82
2022/07/14 05:14:57;;;;;;;3.50;2.50;;;;;;;26.61;47.73;101450.13;5073132;28;20056;-83
2022/07/14 05:17:24;;;;;;;3.83;2.83;;;;;;;26.61;47.49;101459.09;5072943;28;20048;-80
2022/07/14 05:20:06;;;;;;;3.22;2.47;;;;;;;26.61;47.42;101461.81;5073452;28;20048;-79
2022/07/14 05:22:41;;;;;;;4.40;2.67;;;;;;;26.62;47.37;101460.81;5073050;28;20048;-81
2022/07/14 05:25:12;;;;;;;4.57;2.13;;;;;;;26.64;47.68;101466.09;5072684;28;20055;-82
2022/07/14 05:27:41;;;;;;;5.35;2.22;;;;;;;26.63;47.60;101462.53;5072368;28;20052;-82
2022/07/14 05:30:23;;;;;;;4.57;2.58;;;;;;;26.62;47.53;101460.81;5058064;28;20052;-81
2022/07/14 05:32:53;;;;;;;4.03;2.85;;;;;;;26.63;47.37;101464.38;5073029;28;20048;-82
2022/07/14 05:35:21;;;;;;;3.97;2.70;;;;;;;26.63;47.33;101461.69;5073517;28;20052;-82
2022/07/14 05:37:49;;;;;;;3.28;2.47;;;;;;;26.63;47.64;101467.94;5073480;28;20060;-82
2022/07/14 05:40:16;;;;;;;3.80;2.25;;;;;;;26.65;47.98;101480.50;5072346;28;20053;-81
2022/07/14 05:42:46;;;;;;;4.65;2.90;;;;;;;26.64;48.46;101468.78;5072780;28;20412;-81
2022/07/14 05:45:14;;;;;;;4.45;3.05;;;;;;;26.65;48.42;101464.22;5089150;28;20052;-82
2022/07/14 05:47:43;;;;;;;3.20;2.40;;;;;;;26.65;48.75;101459.63;5072519;28;20055;-81
2022/07/14 05:50:10;;;;;;;3.38;2.65;;;;;;;26.65;48.27;101465.06;5075346;28;20052;-82
2022/07/14 05:52:42;;;;;;;3.75;2.70;;;;;;;26.66;48.06;101465.91;5074115;28;20048;-82
2022/07/14 05:55:10;;;;;;;4.00;2.13;;;;;;;26.65;48.24;101465.06;5074906;28;20063;-82
2022/07/14 05:57:38;;;;;;;3.88;2.63;;;;;;;26.66;48.27;101476.78;5057540;28;20053;-82
2022/07/14 06:00:09;;;;;;;2.70;2.20;;;;;;;26.67;48.90;101473.06;5056205;28;20056;-84
2022/07/14 06:02:45;;;;;;;3.10;2.55;;;;;;;26.66;48.74;101479.47;5071538;28;20389;-83
2022/07/14 06:05:18;;;;;;;4.85;2.70;;;;;;;26.67;48.56;101479.34;5089085;28;20052;-84
2022/07/14 06:07:46;;;;;;;3.33;2.90;;;;;;;26.67;48.12;101464.91;5075250;28;20063;-82
2022/07/14 06:10:15;;;;;;;5.25;2.40;;;;;;;26.68;48.60;101470.16;5073680;28;20412;-83
2022/07/14 06:12:46;;;;;;;5.45;2.88;;;;;;;26.70;48.21;101472.72;5056777;28;20049;-83
2022/07/14 06:15:15;;;;;;;5.70;3.35;;;;;;;26.67;48.08;101463.03;5074585;28;20049;-83
2022/07/14 06:17:43;;;;;;;5.25;2.58;;;;;;;26.64;48.25;101474.22;5089279;28;20056;-83
2022/07/14 06:20:11;;;;;;;4.30;2.60;;;;;;;26.62;47.92;101476.28;5070660;28;20057;-83
2022/07/14 06:22:42;;;;;;;6.10;3.35;;;;;;;26.59;47.64;101465.72;5052184;28;20055;-84
2022/07/14 06:25:11;;;;;;;5.30;2.70;;;;;;;26.57;47.76;101470.47;5085883;28;20071;-82
2022/07/14 06:27:39;;;;;;;5.03;2.70;;;;;;;26.55;46.96;101467.09;5056408;28;20052;-86
2022/07/14 06:30:09;;;;;;;6.28;2.67;;;;;;;26.55;46.75;101467.09;5072543;28;20063;-80
2022/07/14 06:32:40;;;;;;;3.72;2.58;;;;;;;26.54;47.40;101468.94;5071149;28;20059;-84
2022/07/14 06:35:12;;;;;;;8.95;2.58;;;;;;;26.56;47.24;101471.50;5074556;28;20385;-88
2022/07/14 06:37:41;;;;;;;7.10;2.67;;;;;;;26.56;46.26;101475.06;5072830;28;20404;-87
2022/07/14 06:40:10;;;;;;;5.35;2.45;;;;;;;26.56;46.25;101477.75;5055477;28;20055;-87
2022/07/14 06:42:43;;;;;;;;;;;;;;;26.56;45.05;101474.19;5058335;28;20052;-87
2022/07/14 06:45:30;;;;;;;5.63;3.13;;;;;;;26.53;44.99;101475.38;5000907;28;20412;-87
2022/07/14 06:47:58;;;;;;;8.75;2.55;;;;;;;26.53;45.72;101480.81;4995812;28;20053;-88
2022/07/14 06:50:26;;;;;;;3.50;2.92;;;;;;;26.51;45.95;101482.84;4997123;28;20066;-88
2022/07/14 06:52:53;;;;;;;5.07;3.63;;;;;;;26.50;46.14;101475.72;5012653;28;20514;-88
2022/07/14 06:55:21;;;;;;;6.95;3.45;;;;;;;26.48;46.14;101476.88;4995692;28;20054;-88
2022/07/14 06:57:50;;;;;;;8.90;4.18;;;;;;;26.47;45.90;101476.03;4979423;28;20053;-87
2022/07/14 07:00:25;;;;;;;6.75;3.45;;;;;;;26.46;45.81;101477.06;5011650;28;20052;-89
2022/07/14 07:02:52;;;;;;;5.13;2.92;;;;;;;26.44;45.54;101479.03;5011911;28;20061;-87
2022/07/14 07:08:06;;;;;;;5.97;2.67;;;;;;;26.44;43.82;101480.91;5012332;28;20058;-88
2022/07/14 07:10:40;;;;;;;4.47;2.60;;;;;;;26.44;44.03;101483.63;4994779;28;20469;-87
2022/07/14 07:13:08;;;;;;;4.10;2.42;;;;;;;26.45;43.83;101477.22;5012571;28;20050;-87
2022/07/14 07:15:39;;;;;;;4.78;2.70;;;;;;;26.46;43.85;101482.50;5015044;28;20536;-88
2022/07/14 07:18:07;;;;;;;5.82;2.60;;;;;;;26.50;44.50;101483.03;5013651;28;20059;-86
2022/07/14 07:20:35;;;;;;;4.68;2.55;;;;;;;26.51;44.61;101484.72;5017569;28;20050;-88
2022/07/14 07:23:03;;;;;;;4.10;2.80;;;;;;;26.53;45.00;101477.25;5028640;28;20060;-88
2022/07/14 07:25:31;;;;;;;5.10;2.55;;;;;;;26.55;44.66;101481.50;5078812;28;20142;-88
2022/07/14 07:27:59;;;;;;;4.38;2.60;;;;;;;26.57;44.85;101478.59;5059475;28;20389;-87
2022/07/14 07:30:27;;;;;;;5.10;2.85;;;;;;;26.60;45.26;101483.72;5059275;28;20053;-88
2022/07/14 07:32:54;;;;;;;4.63;2.67;;;;;;;26.61;45.11;101478.13;5076626;28;20055;-86
2022/07/14 07:35:22;;;;;;;3.55;2.55;;;;;;;26.63;45.08;101478.81;5076561;28;20052;-87
2022/07/14 07:37:50;;;;;;;5.05;2.20;;;;;;;26.65;45.55;101483.22;5078932;28;20048;-87
2022/07/14 07:40:18;;;;;;;4.30;2.75;;;;;;;26.66;45.53;101485.78;5078303;28;20427;-87
2022/07/14 07:42:45;;;;;;;4.75;2.50;;;;;;;26.68;45.64;101477.47;5060170;28;20056;-88
2022/07/14 07:45:12;;;;;;;5.22;2.83;;;;;;;26.69;45.48;101473.72;5076714;28;20507;-87
2022/07/14 07:47:40;;;;;;;4.05;2.72;;;;;;;26.70;45.61;101464.56;5078348;28;20049;-91
2022/07/14 07:50:08;;;;;;;3.03;2.45;;;;;;;26.70;45.58;101457.28;5077317;28;20408;-91
2022/07/14 07:52:37;;;;;;;4.93;2.45;;;;;;;26.71;45.28;101456.28;5075301;28;20051;-89
2022/07/14 07:55:09;;;;;;;5.28;2.58;;;;;;;26.72;45.42;101457.97;5076766;28;20059;-87
2022/07/14 07:57:52;;;;;;;5.32;2.53;;;;;;;26.74;45.42;101455.06;5062389;28;20519;-89
2022/07/14 08:00:19;;;;;;;4.65;2.63;;;;;;;26.75;45.48;101451.34;5077369;28;20494;-89
2022/07/14 08:02:48;;;;;;;4.43;2.80;;;;;;;26.76;45.63;101453.03;5077023;28;20059;-88
2022/07/14 08:05:18;;;;;;;4.60;2.63;;;;;;;26.75;45.55;101445.94;5060964;28;20051;-89
2022/07/14 08:08:07;;;;;;;3.03;2.30;;;;;;;26.78;45.80;101453.72;5076632;28;20060;-89
2022/07/14 08:10:36;;;;;;;3.22;2.20;;;;;;;26.77;45.63;101447.44;5060581;28;20488;-88
2022/07/14 08:13:04;;;;;;;3.33;2.45;;;;;;;26.78;45.77;101451.00;5073382;28;20063;-88
2022/07/14 08:15:32;;;;;;;4.82;2.35;;;;;;;26.79;45.73;101452.72;5071349;28;20052;-87
2022/07/14 08:17:59;;;;;;;4.32;2.65;;;;;;;26.80;45.62;101444.41;5055220;28;20079;-87
2022/07/14 08:20:27;;;;;;;4.53;2.47;;;;;;;26.81;45.65;101456.94;5071115;28;20044;-87
2022/07/14 08:22:55;;;;;;;4.60;2.53;;;;;;;26.83;45.75;101456.81;5070770;28;20068;-87
2022/07/14 08:25:22;;;;;;;4.18;2.50;;;;;;;26.83;45.84;101445.94;5054823;28;20063;-87
2022/07/14 08:27:50;;;;;;;4.03;2.38;;;;;;;26.83;45.55;101448.66;5069834;28;20056;-87
2022/07/14 08:30:18;;;;;;;4.53;2.20;;;;;;;26.84;45.82;101447.63;5070408;28;20048;-87
2022/07/14 08:32:51;;;;;;;2.88;2.20;;;;;;;26.85;45.41;101444.75;5070473;28;20044;-87
2022/07/14 08:35:21;;;;;;;2.70;2.05;;;;;;;26.85;45.55;101439.31;5073837;28;20056;-86
2022/07/14 08:37:50;;;;;;;4.00;2.50;;;;;;;26.87;45.96;101444.59;5072185;28;20409;-86
2022/07/14 08:40:20;;;;;;;3.13;2.47;;;;;;;26.87;45.94;101439.16;5056689;28;20055;-88
2022/07/14 08:42:50;;;;;;;4.75;2.55;;;;;;;26.88;46.06;101449.00;5077608;28;20464;-88
2022/07/14 08:45:21;;;;;;;2.88;2.20;;;;;;;26.88;45.92;101438.97;5075960;28;20056;-88
2022/07/14 08:47:50;;;;;;;4.47;2.42;;;;;;;26.89;45.98;101437.09;5076223;28;20400;-88
2022/07/14 08:50:19;;;;;;;2.38;2.15;;;;;;;26.91;45.87;101436.97;5073844;28;20048;-88
2022/07/14 08:52:48;;;;;;;2.72;2.17;;;;;;;26.91;45.86;101428.81;5071815;28;20071;-88
2022/07/14 08:55:18;;;;;;;3.85;2.38;;;;;;;26.90;45.92;101425.25;5075951;28;20059;-88
2022/07/14 08:57:46;;;;;;;3.95;2.55;;;;;;;26.92;45.75;101439.50;5074188;28;20052;-88
2022/07/14 09:00:19;;;;;;;2.22;1.98;;;;;;;26.91;45.97;101435.09;5057236;28;20059;-88
2022/07/14 09:02:55;;;;;;;3.35;2.28;;;;;;;26.93;46.10;101438.47;5075118;28;20045;-88
2022/07/14 09:05:43;;;;;;;;;;;;;;;26.93;45.92;101434.91;5075990;28;20052;-87
2022/07/14 09:08:13;;;;;;;4.60;2.42;;;;;;;26.94;46.04;101439.31;5073470;28;19920;-88
2022/07/14 09:10:42;;;;;;;2.90;2.08;;;;;;;26.94;45.83;101434.75;5075344;28;20063;-87
2022/07/14 09:13:33;;;;;;;3.25;2.08;;;;;;;26.95;45.96;101431.03;5074250;28;20040;-87
2022/07/14 09:16:23;;;;;;;4.88;2.20;;;;;;;26.95;45.74;101431.03;5073045;28;20403;-87
2022/07/14 09:19:03;;;;;;;3.75;2.42;;;;;;;26.96;45.96;101424.56;5074268;28;20055;-87
2022/07/14 09:21:31;;;;;;;3.60;2.08;;;;;;;26.96;45.99;101424.56;5075080;28;20045;-87
2022/07/14 09:23:59;;;;;;;4.25;2.75;;;;;;;26.97;45.95;101428.13;5056525;28;20518;-87
2022/07/14 09:26:27;;;;;;;4.25;2.45;;;;;;;26.97;45.86;101433.56;5072459;28;20052;-87
2022/07/14 09:28:55;;;;;;;3.45;2.08;;;;;;;26.98;45.94;101429.81;5071809;28;20068;-89
2022/07/14 09:31:29;;;;;;;2.83;2.20;;;;;;;26.98;46.05;101418.94;5071307;28;20067;-89
2022/07/14 09:33:59;;;;;;;2.97;2.40;;;;;;;26.98;45.87;101430.69;5071076;28;20048;-89
2022/07/14 09:36:31;;;;;;;3.38;2.25;;;;;;;26.99;46.05;101412.50;5072629;28;20049;-89
2022/07/14 09:39:08;;;;;;;3.25;2.30;;;;;;;26.99;46.26;101409.78;5073334;28;20060;-89
2022/07/14 09:41:47;;;;;;;2.80;2.20;;;;;;;27.00;45.87;101414.22;5073532;28;20523;-87
2022/07/14 09:44:19;;;;;;;2.88;2.00;;;;;;;27.00;45.79;101419.63;5070916;28;20431;-88
2022/07/14 09:46:54;;;;;;;2.70;2.22;;;;;;;27.00;46.04;101406.91;5070851;28;20053;-89
2022/07/14 09:49:25;;;;;;;3.53;2.30;;;;;;;26.99;46.10;101405.22;5075407;28;20515;-89
2022/07/14 09:51:55;;;;;;;3.00;2.20;;;;;;;27.01;46.09;101405.03;5057544;28;20051;-89
2022/07/14 09:54:44;;;;;;;3.60;2.22;;;;;;;27.02;45.63;101398.56;5071459;28;20060;-88
2022/07/14 09:57:11;;;;;;;3.33;2.40;;;;;;;27.01;45.73;101397.72;5075543;28;20048;-89
2022/07/14 09:59:53;;;;;;;3.55;2.22;;;;;;;27.01;45.59;101396.88;5075207;28;20048;-89
2022/07/14 10:02:22;;;;;;;2.85;2.10;;;;;;;27.03;45.81;101400.28;5075680;28;20044;-88
2022/07/14 10:04:54;;;;;;;3.28;2.40;;;;;;;27.02;45.49;101390.41;5058034;28;20489;-89
2022/07/14 10:07:24;;;;;;;3.33;2.20;;;;;;;27.02;45.47;101394.00;5058303;28;20059;-89
2022/07/14 10:09:57;;;;;;;3.85;2.40;;;;;;;27.03;45.58;101390.25;5074279;28;20397;-89
2022/07/14 10:12:26;;;;;;;3.42;2.10;;;;;;;27.03;45.42;101387.53;5056692;28;20048;-89
2022/07/14 10:14:54;;;;;;;2.42;2.15;;;;;;;27.03;45.47;101382.13;5074495;28;20064;-89
2022/07/14 10:17:22;;;;;;;2.47;2.08;;;;;;;27.03;45.59;101378.56;5056237;28;20063;-89
2022/07/14 10:19:50;;;;;;;2.58;2.05;;;;;;;27.04;45.71;101380.25;5058920;28;20052;-89
2022/07/14 10:22:18;;;;;;;4.22;2.03;;;;;;;27.04;45.64;101378.38;5075278;28;20056;-88
2022/07/14 10:24:49;;;;;;;3.88;2.28;;;;;;;27.04;45.63;101375.66;5072725;28;20056;-88
2022/07/14 10:27:18;;;;;;;2.30;2.00;;;;;;;27.05;45.37;101377.34;5073646;28;20053;-88
2022/07/14 10:29:51;;;;;;;2.35;1.80;;;;;;;27.06;45.49;101376.34;5073723;28;20044;-89
2022/07/14 10:32:23;;;;;;;4.10;2.22;;;;;;;27.06;45.33;101372.75;5073093;28;20051;-89
2022/07/14 10:35:24;;;;;;;4.47;2.05;;;;;;;27.07;45.46;101372.59;5074100;28;20515;-89
2022/07/14 10:38:12;;;;;;;3.38;2.20;;;;;;;27.06;45.46;101365.47;5074423;28;20051;-89
2022/07/14 10:40:59;;;;;;;3.08;2.00;;;;;;;27.06;45.54;101362.75;5074098;28;20052;-89
2022/07/14 10:44:00;;;;;;;2.75;1.80;;;;;;;27.07;45.59;101369.88;5076660;28;20056;-89
2022/07/14 10:46:52;;;;;;;3.20;2.00;;;;;;;27.08;45.58;101365.28;5071405;28;20062;-88
2022/07/14 10:50:07;;;;;;;2.63;1.90;;;;;;;27.05;45.35;101352.88;5058654;28;20431;-88
2022/07/14 10:52:58;;;;;;;2.55;1.83;;;;;;;27.06;45.27;101354.59;5076897;28;20059;-89
2022/07/14 10:55:50;;;;;;;2.80;1.80;;;;;;;27.06;45.56;101345.56;5044387;28;20057;-88
2022/07/14 10:58:27;;;;;;;2.80;2.10;;;;;;;27.06;45.18;101351.88;5057111;28;20044;-89
2022/07/14 11:01:10;;;;;;;3.08;1.80;;;;;;;27.06;45.47;101351.00;5074361;28;20052;-88
2022/07/14 11:03:55;;;;;;;4.03;2.17;;;;;;;27.07;45.14;101347.28;5072928;28;20033;-89
2022/07/14 11:06:22;;;;;;;2.70;1.90;;;;;;;27.08;45.42;101346.28;5072584;28;20412;-89
2022/07/14 11:09:18;;;;;;;2.90;2.00;;;;;;;27.09;45.26;101342.53;5074118;28;20040;-87
2022/07/14 11:12:09;;;;;;;2.85;1.73;;;;;;;27.09;45.22;101334.38;5073522;28;20123;-90
2022/07/14 11:14:42;;;;;;;2.42;2.00;;;;;;;27.10;45.14;101341.53;5073409;28;20049;-89
2022/07/14 11:17:36;;;;;;;2.45;1.80;;;;;;;27.10;45.44;101330.66;5056415;28;20053;-90
2022/07/14 11:20:08;;;;;;;2.17;1.60;;;;;;;27.10;45.35;101330.66;5074088;28;20064;-90
2022/07/14 11:22:37;;;;;;;2.40;1.70;;;;;;;27.10;45.18;101325.22;5076045;28;20376;-89
2022/07/14 11:25:05;;;;;;;2.75;1.88;;;;;;;27.10;45.25;101327.94;5075068;28;20048;-89
2022/07/14 11:27:41;;;;;;;2.38;1.80;;;;;;;27.10;45.29;101325.22;5055023;28;20053;-89
2022/07/14 11:30:30;;;;;;;2.60;1.90;;;;;;;27.10;45.11;101323.38;5054577;28;20052;-90
2022/07/14 11:33:03;;;;;;;2.92;2.03;;;;;;;27.11;45.13;101321.50;5072593;28;20152;-89
2022/07/14 11:39:16;;;;;;;2.42;1.63;;;;;;;27.11;44.92;101313.34;5071924;28;20061;-90
2022/07/14 11:42:01;;;;;;;2.13;1.80;;;;;;;27.11;45.02;101307.91;5070923;28;20516;-90
2022/07/14 11:44:40;;;;;;;2.10;1.73;;;;;;;27.11;45.13;101303.31;5070970;28;20049;-90
2022/07/14 11:47:14;;;;;;;2.42;1.90;;;;;;;27.12;45.00;101304.16;5072068;28;20079;-90
2022/07/14 11:49:51;;;;;;;3.72;1.70;;;;;;;27.12;45.11;101301.44;5056794;28;20052;-90
2022/07/14 11:52:25;;;;;;;2.42;1.98;;;;;;;27.12;45.16;101290.59;5076920;28;20071;-90
2022/07/14 11:54:53;;;;;;;2.70;1.77;;;;;;;27.13;45.01;101291.44;5054887;28;20052;-90
2022/07/14 11:57:21;;;;;;;2.28;1.83;;;;;;;27.11;45.06;101287.03;5073734;28;20041;-90